createdAt,value
2017-12-24T00:00:49.556Z,9.64
2017-12-24T00:02:03.763Z,9.69
2017-12-24T00:03:05.637Z,9.71
2017-12-24T00:04:07.529Z,9.75
2017-12-24T00:05:09.384Z,9.71
2017-12-24T00:06:11.186Z,9.72
2017-12-24T00:07:12.988Z,9.71
2017-12-24T00:08:14.859Z,9.54
2017-12-24T00:09:16.759Z,9.66
2017-12-24T00:10:18.620Z,9.58
2017-12-24T00:11:32.828Z,9.66
2017-12-24T00:12:34.725Z,9.69
2017-12-24T00:13:36.614Z,9.65
2017-12-24T00:14:38.501Z,9.66
2017-12-24T00:15:40.303Z,9.71
2017-12-24T00:16:42.102Z,9.69
2017-12-24T00:17:43.971Z,9.79
2017-12-24T00:18:45.874Z,9.78
2017-12-24T00:19:47.763Z,9.64
2017-12-24T00:21:01.921Z,9.64
2017-12-24T00:22:03.802Z,9.66
2017-12-24T00:23:05.668Z,9.69
2017-12-24T00:24:07.537Z,9.56
2017-12-24T00:25:09.358Z,9.56
2017-12-24T00:26:11.162Z,9.58
2017-12-24T00:27:13.051Z,9.53
2017-12-24T00:28:14.932Z,9.47
2017-12-24T00:29:16.804Z,9.46
2017-12-24T00:30:30.962Z,9.35
2017-12-24T00:31:32.835Z,9.36
2017-12-24T00:32:34.741Z,9.35
2017-12-24T00:33:36.622Z,9.38
2017-12-24T00:34:38.420Z,9.46
2017-12-24T00:35:40.224Z,9.38
2017-12-24T00:36:42.113Z,9.42
2017-12-24T00:37:44.004Z,9.47
2017-12-24T00:38:45.891Z,9.38
2017-12-24T00:40:00.039Z,9.50
2017-12-24T00:41:01.893Z,9.50
2017-12-24T00:42:03.774Z,9.42
2017-12-24T00:43:05.640Z,9.54
2017-12-24T00:44:07.439Z,9.53
2017-12-24T00:45:09.236Z,9.54
2017-12-24T00:46:11.106Z,9.54
2017-12-24T00:47:12.992Z,9.54
2017-12-24T00:48:14.861Z,9.57
2017-12-24T00:49:28.998Z,9.56
2017-12-24T00:50:30.866Z,9.56
2017-12-24T00:51:32.747Z,9.53
2017-12-24T00:52:34.618Z,9.50
2017-12-24T00:53:36.441Z,9.48
2017-12-24T00:54:38.264Z,9.54
2017-12-24T00:55:40.151Z,9.58
2017-12-24T00:56:42.012Z,9.68
2017-12-24T00:57:43.879Z,9.60
2017-12-24T00:58:58.015Z,9.54
2017-12-24T00:59:59.880Z,9.42
2017-12-24T01:01:01.762Z,9.48
2017-12-24T01:02:03.630Z,9.36
2017-12-24T01:03:05.456Z,9.53
2017-12-24T01:04:07.278Z,9.60
2017-12-24T01:05:09.140Z,9.53
2017-12-24T01:06:11.026Z,9.42
2017-12-24T01:07:12.892Z,9.43
2017-12-24T01:08:27.031Z,9.64
2017-12-24T01:09:28.913Z,9.60
2017-12-24T01:10:30.781Z,9.54
2017-12-24T01:11:32.668Z,9.60
2017-12-24T01:12:34.470Z,9.54
2017-12-24T01:13:36.291Z,9.57
2017-12-24T01:14:38.152Z,9.58
2017-12-24T01:15:40.014Z,9.68
2017-12-24T01:16:41.877Z,9.69
2017-12-24T01:17:56.021Z,9.71
2017-12-24T01:18:57.900Z,9.71
2017-12-24T01:19:59.785Z,9.54
2017-12-24T01:21:01.644Z,9.65
2017-12-24T01:22:03.485Z,9.65
2017-12-24T01:23:05.242Z,9.56
2017-12-24T01:24:07.111Z,9.60
2017-12-24T01:25:08.939Z,9.57
2017-12-24T01:26:10.765Z,9.57
2017-12-24T01:27:24.925Z,9.54
2017-12-24T01:28:26.782Z,9.43
2017-12-24T01:29:28.647Z,9.43
2017-12-24T01:30:30.507Z,9.32
2017-12-24T01:31:32.326Z,9.40
2017-12-24T01:32:34.125Z,9.35
2017-12-24T01:33:35.992Z,9.38
2017-12-24T01:34:37.853Z,9.40
2017-12-24T01:35:39.716Z,9.46
2017-12-24T01:36:53.854Z,9.48
2017-12-24T01:37:55.742Z,9.42
2017-12-24T01:38:57.621Z,9.40
2017-12-24T01:39:59.483Z,9.32
2017-12-24T01:41:01.286Z,9.35
2017-12-24T01:42:03.086Z,9.38
2017-12-24T01:43:04.951Z,9.32
2017-12-24T01:44:06.818Z,9.39
2017-12-24T01:45:08.691Z,9.33
2017-12-24T01:46:23.056Z,9.42
2017-12-24T01:47:24.921Z,9.26
2017-12-24T01:48:26.801Z,9.36
2017-12-24T01:49:28.667Z,9.38
2017-12-24T01:50:30.470Z,9.33
2017-12-24T01:51:32.267Z,9.29
2017-12-24T01:52:34.131Z,9.35
2017-12-24T01:53:35.995Z,9.39
2017-12-24T01:54:37.856Z,9.35
2017-12-24T01:55:51.995Z,9.29
2017-12-24T01:56:53.850Z,9.29
2017-12-24T01:57:55.721Z,9.28
2017-12-24T01:58:57.600Z,9.29
2017-12-24T01:59:59.404Z,9.28
2017-12-24T02:01:01.230Z,9.26
2017-12-24T02:02:03.090Z,9.29
2017-12-24T02:03:04.973Z,9.39
2017-12-24T02:04:06.843Z,9.29
2017-12-24T02:05:21.002Z,9.32
2017-12-24T02:06:22.884Z,9.32
2017-12-24T02:07:24.749Z,9.31
2017-12-24T02:08:26.613Z,9.31
2017-12-24T02:09:28.411Z,9.26
2017-12-24T02:10:30.218Z,9.33
2017-12-24T02:11:32.081Z,9.38
2017-12-24T02:12:33.938Z,9.42
2017-12-24T02:13:35.826Z,9.46
2017-12-24T02:14:49.983Z,9.39
2017-12-24T02:15:51.846Z,9.39
2017-12-24T02:16:53.704Z,9.40
2017-12-24T02:17:55.573Z,9.39
2017-12-24T02:18:57.388Z,9.29
2017-12-24T02:19:59.192Z,9.35
2017-12-24T02:21:01.075Z,9.23
2017-12-24T02:22:02.936Z,9.31
2017-12-24T02:23:04.800Z,9.29
2017-12-24T02:24:18.933Z,9.31
2017-12-24T02:25:20.796Z,9.33
2017-12-24T02:26:22.660Z,9.38
2017-12-24T02:27:24.542Z,9.28
2017-12-24T02:28:26.339Z,9.35
2017-12-24T02:29:28.140Z,9.40
2017-12-24T02:30:30.022Z,9.39
2017-12-24T02:31:31.863Z,9.32
2017-12-24T02:32:33.728Z,9.36
2017-12-24T02:33:47.867Z,9.24
2017-12-24T02:34:49.751Z,9.28
2017-12-24T02:35:51.630Z,9.24
2017-12-24T02:36:53.488Z,9.32
2017-12-24T02:37:55.288Z,9.33
2017-12-24T02:38:57.090Z,9.54
2017-12-24T02:39:58.949Z,9.48
2017-12-24T02:41:00.806Z,9.50
2017-12-24T02:42:02.673Z,9.39
2017-12-24T02:43:16.806Z,9.38
2017-12-24T02:44:18.685Z,9.33
2017-12-24T02:45:20.548Z,9.40
2017-12-24T02:46:22.407Z,9.39
2017-12-24T02:47:24.227Z,9.36
2017-12-24T02:48:26.026Z,9.33
2017-12-24T02:49:27.890Z,9.35
2017-12-24T02:50:29.778Z,9.33
2017-12-24T02:51:31.661Z,9.31
2017-12-24T02:52:45.843Z,9.33
2017-12-24T02:53:47.725Z,9.33
2017-12-24T02:54:49.593Z,9.33
2017-12-24T02:55:51.449Z,9.33
2017-12-24T02:56:53.253Z,9.35
2017-12-24T02:57:55.054Z,9.31
2017-12-24T02:58:56.939Z,9.38
2017-12-24T02:59:58.820Z,9.35
2017-12-24T03:01:00.688Z,9.24
2017-12-24T03:02:14.844Z,9.29
2017-12-24T03:03:16.721Z,9.29
2017-12-24T03:04:18.582Z,9.38
2017-12-24T03:05:20.446Z,9.47
2017-12-24T03:06:22.270Z,9.42
2017-12-24T03:07:24.069Z,9.54
2017-12-24T03:08:25.952Z,9.40
2017-12-24T03:09:27.794Z,9.46
2017-12-24T03:10:29.599Z,9.40
2017-12-24T03:11:43.780Z,9.47
2017-12-24T03:12:45.643Z,9.46
2017-12-24T03:13:47.519Z,9.54
2017-12-24T03:14:49.380Z,9.42
2017-12-24T03:15:51.180Z,9.47
2017-12-24T03:16:52.977Z,9.46
2017-12-24T03:17:54.837Z,9.42
2017-12-24T03:18:56.701Z,9.40
2017-12-24T03:19:58.567Z,9.29
2017-12-24T03:21:12.725Z,9.32
2017-12-24T03:22:14.608Z,9.20
2017-12-24T03:23:16.491Z,9.26
2017-12-24T03:24:18.371Z,9.26
2017-12-24T03:25:20.176Z,9.18
2017-12-24T03:26:21.979Z,9.14
2017-12-24T03:27:23.835Z,9.24
2017-12-24T03:28:25.698Z,9.23
2017-12-24T03:29:27.560Z,9.23
2017-12-24T03:30:41.692Z,9.23
2017-12-24T03:31:43.554Z,9.14
2017-12-24T03:32:45.415Z,9.13
2017-12-24T03:33:47.273Z,9.33
2017-12-24T03:34:49.074Z,9.38
2017-12-24T03:35:50.876Z,9.32
2017-12-24T03:36:52.760Z,9.28
2017-12-24T03:37:54.626Z,9.26
2017-12-24T03:38:56.508Z,9.31
2017-12-24T03:40:10.690Z,9.36
2017-12-24T03:41:12.553Z,9.32
2017-12-24T03:42:14.411Z,9.33
2017-12-24T03:43:16.268Z,9.33
2017-12-24T03:44:18.090Z,9.33
2017-12-24T03:45:19.892Z,9.33
2017-12-24T03:46:21.753Z,9.31
2017-12-24T03:47:23.614Z,9.32
2017-12-24T03:48:25.489Z,9.35
2017-12-24T03:49:39.640Z,9.46
2017-12-24T03:50:41.494Z,9.42
2017-12-24T03:51:43.355Z,9.42
2017-12-24T03:52:45.216Z,9.46
2017-12-24T03:53:47.018Z,9.39
2017-12-24T03:54:48.821Z,9.33
2017-12-24T03:55:50.679Z,9.36
2017-12-24T03:56:52.545Z,9.35
2017-12-24T03:57:54.406Z,9.31
2017-12-24T03:59:08.561Z,9.35
2017-12-24T04:00:10.416Z,9.35
2017-12-24T04:01:12.278Z,9.29
2017-12-24T04:02:14.137Z,9.32
2017-12-24T04:03:15.943Z,9.33
2017-12-24T04:04:17.764Z,9.39
2017-12-24T04:05:19.625Z,9.39
2017-12-24T04:06:21.490Z,9.38
2017-12-24T04:07:23.352Z,9.42
2017-12-24T04:08:37.486Z,9.40
2017-12-24T04:09:39.346Z,9.48
2017-12-24T04:10:41.210Z,9.43
2017-12-24T04:11:43.067Z,9.51
2017-12-24T04:12:44.866Z,9.56
2017-12-24T04:13:46.669Z,9.54
2017-12-24T04:14:48.532Z,9.57
2017-12-24T04:15:50.415Z,9.54
2017-12-24T04:16:52.282Z,9.58
2017-12-24T04:18:06.440Z,9.56
2017-12-24T04:19:08.325Z,9.54
2017-12-24T04:20:10.178Z,9.64
2017-12-24T04:21:12.040Z,9.58
2017-12-24T04:22:13.843Z,9.56
2017-12-24T04:23:15.641Z,9.46
2017-12-24T04:24:17.507Z,9.56
2017-12-24T04:25:19.375Z,9.58
2017-12-24T04:26:21.253Z,9.48
2017-12-24T04:27:35.387Z,9.51
2017-12-24T04:28:37.244Z,9.43
2017-12-24T04:29:39.103Z,9.38
2017-12-24T04:30:40.967Z,9.42
2017-12-24T04:31:42.771Z,9.50
2017-12-24T04:32:44.591Z,9.46
2017-12-24T04:33:46.455Z,9.61
2017-12-24T04:34:48.317Z,9.64
2017-12-24T04:35:50.185Z,9.71
2017-12-24T04:37:04.341Z,9.81
2017-12-24T04:38:06.200Z,9.72
2017-12-24T04:39:08.059Z,9.60
2017-12-24T04:40:09.922Z,9.53
2017-12-24T04:41:11.748Z,9.50
2017-12-24T04:42:13.567Z,9.32
2017-12-24T04:43:15.424Z,9.46
2017-12-24T04:44:17.289Z,9.42
2017-12-24T04:45:19.174Z,9.40
2017-12-24T04:46:33.334Z,9.40
2017-12-24T04:47:35.216Z,9.39
2017-12-24T04:48:37.110Z,9.48
2017-12-24T04:49:38.956Z,9.39
2017-12-24T04:50:40.775Z,9.35
2017-12-24T04:51:42.575Z,9.31
2017-12-24T04:52:44.442Z,9.29
2017-12-24T04:53:46.321Z,9.32
2017-12-24T04:54:48.189Z,9.35
2017-12-24T04:56:02.345Z,9.29
2017-12-24T04:57:04.207Z,9.33
2017-12-24T04:58:06.088Z,9.40
2017-12-24T04:59:07.947Z,9.35
2017-12-24T05:00:09.748Z,9.32
2017-12-24T05:01:11.551Z,9.32
2017-12-24T05:02:13.437Z,9.31
2017-12-24T05:03:15.319Z,9.32
2017-12-24T05:04:17.184Z,9.38
2017-12-24T05:05:31.343Z,9.47
2017-12-24T05:06:33.204Z,9.53
2017-12-24T05:07:35.084Z,9.54
2017-12-24T05:08:36.941Z,9.51
2017-12-24T05:09:38.748Z,9.51
2017-12-24T05:10:40.567Z,9.47
2017-12-24T05:11:42.427Z,9.48
2017-12-24T05:12:44.293Z,9.35
2017-12-24T05:13:46.179Z,9.32
2017-12-24T05:15:00.334Z,9.40
2017-12-24T05:16:02.198Z,9.40
2017-12-24T05:17:04.080Z,9.35
2017-12-24T05:18:05.961Z,9.40
2017-12-24T05:19:07.760Z,9.50
2017-12-24T05:20:09.562Z,9.47
2017-12-24T05:21:11.450Z,9.46
2017-12-24T05:22:13.334Z,9.43
2017-12-24T05:23:15.213Z,9.42
2017-12-24T05:24:29.354Z,9.46
2017-12-24T05:25:31.239Z,9.43
2017-12-24T05:26:33.096Z,9.47
2017-12-24T05:27:34.977Z,9.50
2017-12-24T05:28:36.797Z,9.50
2017-12-24T05:29:38.596Z,9.54
2017-12-24T05:30:40.482Z,9.53
2017-12-24T05:31:42.337Z,9.60
2017-12-24T05:32:44.200Z,9.51
2017-12-24T05:33:58.361Z,9.53
2017-12-24T05:35:00.266Z,9.58
2017-12-24T05:36:02.127Z,9.47
2017-12-24T05:37:04.006Z,9.38
2017-12-24T05:38:05.809Z,9.40
2017-12-24T05:39:07.626Z,9.39
2017-12-24T05:40:09.485Z,9.42
2017-12-24T05:41:11.346Z,9.46
2017-12-24T05:42:13.207Z,9.51
2017-12-24T05:43:27.345Z,9.46
2017-12-24T05:44:29.232Z,9.32
2017-12-24T05:45:31.111Z,9.35
2017-12-24T05:46:32.969Z,9.42
2017-12-24T05:47:34.792Z,9.47
2017-12-24T05:48:36.589Z,9.50
2017-12-24T05:49:38.449Z,9.54
2017-12-24T05:50:40.314Z,9.58
2017-12-24T05:51:42.179Z,9.50
2017-12-24T05:52:56.332Z,9.48
2017-12-24T05:53:58.199Z,9.40
2017-12-24T05:55:00.087Z,9.40
2017-12-24T05:56:01.939Z,9.40
2017-12-24T05:57:03.744Z,9.36
2017-12-24T05:58:05.537Z,9.43
2017-12-24T05:59:07.400Z,9.32
2017-12-24T06:00:09.262Z,9.39
2017-12-24T06:01:11.129Z,9.38
2017-12-24T06:02:25.264Z,9.33
2017-12-24T06:03:27.149Z,9.35
2017-12-24T06:04:29.007Z,9.31
2017-12-24T06:05:30.891Z,9.29
2017-12-24T06:06:32.686Z,9.36
2017-12-24T06:07:34.489Z,9.46
2017-12-24T06:08:36.367Z,9.46
2017-12-24T06:09:38.228Z,9.38
2017-12-24T06:10:40.094Z,9.39
2017-12-24T06:11:54.234Z,9.35
2017-12-24T06:12:56.112Z,9.31
2017-12-24T06:13:57.972Z,9.29
2017-12-24T06:14:59.833Z,9.28
2017-12-24T06:16:01.653Z,9.29
2017-12-24T06:17:03.453Z,9.28
2017-12-24T06:18:05.317Z,9.28
2017-12-24T06:19:07.206Z,9.29
2017-12-24T06:20:09.089Z,9.28
2017-12-24T06:21:23.244Z,9.26
2017-12-24T06:22:25.103Z,9.32
2017-12-24T06:23:26.958Z,9.38
2017-12-24T06:24:28.817Z,9.31
2017-12-24T06:25:30.620Z,9.29
2017-12-24T06:26:32.424Z,9.32
2017-12-24T06:27:34.514Z,9.40
2017-12-24T06:28:36.577Z,9.38
2017-12-24T06:29:38.445Z,9.46
2017-12-24T06:30:52.601Z,9.46
2017-12-24T06:31:54.462Z,9.40
2017-12-24T06:32:56.341Z,9.42
2017-12-24T06:33:58.206Z,9.32
2017-12-24T06:35:00.033Z,9.40
2017-12-24T06:36:01.821Z,9.48
2017-12-24T06:37:03.688Z,9.46
2017-12-24T06:38:05.572Z,9.54
2017-12-24T06:39:07.458Z,9.51
2017-12-24T06:40:21.617Z,9.43
2017-12-24T06:41:23.500Z,9.51
2017-12-24T06:42:25.357Z,9.46
2017-12-24T06:43:27.219Z,9.47
2017-12-24T06:44:29.044Z,9.47
2017-12-24T06:45:30.865Z,9.47
2017-12-24T06:46:32.733Z,9.36
2017-12-24T06:47:34.594Z,9.38
2017-12-24T06:48:36.481Z,9.32
2017-12-24T06:49:50.642Z,9.33
2017-12-24T06:50:52.524Z,9.31
2017-12-24T06:51:54.380Z,9.42
2017-12-24T06:52:56.239Z,9.39
2017-12-24T06:53:58.044Z,9.42
2017-12-24T06:54:59.852Z,9.29
2017-12-24T06:56:01.733Z,9.38
2017-12-24T06:57:03.595Z,9.50
2017-12-24T06:58:05.477Z,9.53
2017-12-24T06:59:19.610Z,9.43
2017-12-24T07:00:21.470Z,9.38
2017-12-24T07:01:23.333Z,9.40
2017-12-24T07:02:25.198Z,9.42
2017-12-24T07:03:27.026Z,9.51
2017-12-24T07:04:28.825Z,9.47
2017-12-24T07:05:30.754Z,9.56
2017-12-24T07:06:32.588Z,9.50
2017-12-24T07:07:34.451Z,9.46
2017-12-24T07:08:48.587Z,9.42
2017-12-24T07:09:50.443Z,9.56
2017-12-24T07:10:52.309Z,9.40
2017-12-24T07:11:54.186Z,9.47
2017-12-24T07:12:55.995Z,9.43
2017-12-24T07:13:57.796Z,9.51
2017-12-24T07:14:59.683Z,9.53
2017-12-24T07:16:01.568Z,9.36
2017-12-24T07:17:03.432Z,9.48
2017-12-24T07:18:17.615Z,9.51
2017-12-24T07:19:19.478Z,9.54
2017-12-24T07:20:21.340Z,9.66
2017-12-24T07:21:23.204Z,9.64
2017-12-24T07:22:25.008Z,9.56
2017-12-24T07:23:26.836Z,9.66
2017-12-24T07:24:28.726Z,9.72
2017-12-24T07:25:30.614Z,9.74
2017-12-24T07:26:32.476Z,9.78
2017-12-24T07:27:46.613Z,9.78
2017-12-24T07:28:48.477Z,9.76
2017-12-24T07:29:50.335Z,9.87
2017-12-24T07:30:52.199Z,9.89
2017-12-24T07:31:54.001Z,9.90
2017-12-24T07:32:55.810Z,9.74
2017-12-24T07:33:57.678Z,9.81
2017-12-24T07:34:59.558Z,9.76
2017-12-24T07:36:01.424Z,9.72
2017-12-24T07:37:15.563Z,9.79
2017-12-24T07:38:17.436Z,9.76
2017-12-24T07:39:19.316Z,9.81
2017-12-24T07:40:21.183Z,9.75
2017-12-24T07:41:23.014Z,9.64
2017-12-24T07:42:24.839Z,9.58
2017-12-24T07:43:26.705Z,9.56
2017-12-24T07:44:28.630Z,9.56
2017-12-24T07:45:30.515Z,9.53
2017-12-24T07:46:44.655Z,9.66
2017-12-24T07:47:46.537Z,9.64
2017-12-24T07:48:48.420Z,9.56
2017-12-24T07:49:50.286Z,9.64
2017-12-24T07:50:52.116Z,9.68
2017-12-24T07:51:53.947Z,9.69
2017-12-24T07:52:55.833Z,9.66
2017-12-24T07:53:57.696Z,9.60
2017-12-24T07:54:59.565Z,9.58
2017-12-24T07:56:13.707Z,9.54
2017-12-24T07:57:15.604Z,9.60
2017-12-24T07:58:17.707Z,9.53
2017-12-24T07:59:19.591Z,9.57
2017-12-24T08:00:21.415Z,9.64
2017-12-24T08:01:23.224Z,9.64
2017-12-24T08:02:25.150Z,9.71
2017-12-24T08:03:26.977Z,9.74
2017-12-24T08:04:28.839Z,9.78
2017-12-24T08:05:42.986Z,9.81
2017-12-24T08:06:44.846Z,9.79
2017-12-24T08:07:46.727Z,9.69
2017-12-24T08:08:48.596Z,9.72
2017-12-24T08:09:50.399Z,9.87
2017-12-24T08:10:52.206Z,9.86
2017-12-24T08:11:54.076Z,9.89
2017-12-24T08:12:55.958Z,9.89
2017-12-24T08:13:57.824Z,9.81
2017-12-24T08:15:11.967Z,9.81
2017-12-24T08:16:13.851Z,9.76
2017-12-24T08:17:15.719Z,9.81
2017-12-24T08:18:17.584Z,9.69
2017-12-24T08:19:19.413Z,9.79
2017-12-24T08:20:21.213Z,9.66
2017-12-24T08:21:23.087Z,9.66
2017-12-24T08:22:24.975Z,9.65
2017-12-24T08:23:26.839Z,9.69
2017-12-24T08:24:40.981Z,9.66
2017-12-24T08:25:42.841Z,9.75
2017-12-24T08:26:44.742Z,9.69
2017-12-24T08:27:46.630Z,9.71
2017-12-24T08:28:48.462Z,9.81
2017-12-24T08:29:50.288Z,9.72
2017-12-24T08:30:52.149Z,9.72
2017-12-24T08:31:54.023Z,9.71
2017-12-24T08:32:55.913Z,9.74
2017-12-24T08:34:10.048Z,9.68
2017-12-24T08:35:11.908Z,9.68
2017-12-24T08:36:13.776Z,9.69
2017-12-24T08:37:15.638Z,9.60
2017-12-24T08:38:17.452Z,9.68
2017-12-24T08:39:19.281Z,9.68
2017-12-24T08:40:21.170Z,9.66
2017-12-24T08:41:23.108Z,9.65
2017-12-24T08:42:25.002Z,9.58
2017-12-24T08:43:39.149Z,9.60
2017-12-24T08:44:41.032Z,9.65
2017-12-24T08:45:42.900Z,9.60
2017-12-24T08:46:44.785Z,9.54
2017-12-24T08:47:46.590Z,9.56
2017-12-24T08:48:48.399Z,9.54
2017-12-24T08:49:50.262Z,9.58
2017-12-24T08:50:52.127Z,9.57
2017-12-24T08:51:53.997Z,9.74
2017-12-24T08:53:08.192Z,9.69
2017-12-24T08:54:10.052Z,9.71
2017-12-24T08:55:11.919Z,9.76
2017-12-24T08:56:13.791Z,9.76
2017-12-24T08:57:15.705Z,9.79
2017-12-24T08:58:17.652Z,9.75
2017-12-24T08:59:19.703Z,9.72
2017-12-24T09:00:21.803Z,9.74
2017-12-24T09:01:23.791Z,9.74
2017-12-24T09:02:38.091Z,9.79
2017-12-24T09:03:40.126Z,9.78
2017-12-24T09:04:42.131Z,9.81
2017-12-24T09:05:44.078Z,9.78
2017-12-24T09:06:45.984Z,9.87
2017-12-24T09:07:47.926Z,9.79
2017-12-24T09:08:49.929Z,9.83
2017-12-24T09:09:51.916Z,9.81
2017-12-24T09:10:53.934Z,9.75
2017-12-24T09:12:08.187Z,9.84
2017-12-24T09:13:10.161Z,9.90
2017-12-24T09:14:12.031Z,9.97
2017-12-24T09:15:13.944Z,9.90
2017-12-24T09:16:15.787Z,9.89
2017-12-24T09:17:17.609Z,9.89
2017-12-24T09:18:19.506Z,9.86
2017-12-24T09:19:21.404Z,9.99
2017-12-24T09:20:23.300Z,9.99
2017-12-24T09:21:37.441Z,10.14
2017-12-24T09:22:39.311Z,10.18
2017-12-24T09:23:41.202Z,10.07
2017-12-24T09:24:43.094Z,10.17
2017-12-24T09:25:44.939Z,10.22
2017-12-24T09:26:46.734Z,10.12
2017-12-24T09:27:48.626Z,10.08
2017-12-24T09:28:50.514Z,10.20
2017-12-24T09:29:52.383Z,10.11
2017-12-24T09:31:06.536Z,10.15
2017-12-24T09:32:08.407Z,10.23
2017-12-24T09:33:10.299Z,10.17
2017-12-24T09:34:12.188Z,10.11
2017-12-24T09:35:14.016Z,10.23
2017-12-24T09:36:15.823Z,10.15
2017-12-24T09:37:17.690Z,10.25
2017-12-24T09:38:19.562Z,10.22
2017-12-24T09:39:21.452Z,10.18
2017-12-24T09:40:35.599Z,10.18
2017-12-24T09:41:37.490Z,10.08
2017-12-24T09:43:39.903Z,10.04
2017-12-24T09:44:41.791Z,9.94
2017-12-24T09:45:43.660Z,9.94
2017-12-24T09:46:45.549Z,10.01
2017-12-24T09:47:47.354Z,9.91
2017-12-24T09:48:49.164Z,9.87
2017-12-24T09:49:51.031Z,9.90
2017-12-24T09:50:52.893Z,10.05
2017-12-24T09:51:54.778Z,10.18
2017-12-24T09:53:08.918Z,10.08
2017-12-24T09:54:10.783Z,10.20
2017-12-24T09:55:12.652Z,10.11
2017-12-24T09:56:14.541Z,10.07
2017-12-24T09:57:16.350Z,10.18
2017-12-24T09:58:18.180Z,10.08
2017-12-24T09:59:20.040Z,10.07
2017-12-24T10:00:21.910Z,10.15
2017-12-24T10:01:23.775Z,10.08
2017-12-24T10:02:37.968Z,10.05
2017-12-24T10:03:39.855Z,10.15
2017-12-24T10:04:41.723Z,10.17
2017-12-24T10:05:43.589Z,10.11
2017-12-24T10:06:45.420Z,10.07
2017-12-24T10:07:47.247Z,9.93
2017-12-24T10:08:49.129Z,9.89
2017-12-24T10:09:50.995Z,9.99
2017-12-24T10:10:52.865Z,10.02
2017-12-24T10:12:07.025Z,10.04
2017-12-24T10:13:08.908Z,10.12
2017-12-24T10:14:10.787Z,10.18
2017-12-24T10:15:12.650Z,10.12
2017-12-24T10:16:14.479Z,10.07
2017-12-24T10:17:16.306Z,10.09
2017-12-24T10:18:18.173Z,10.15
2017-12-24T10:19:20.038Z,10.23
2017-12-24T10:20:21.903Z,10.22
2017-12-24T10:21:36.043Z,10.26
2017-12-24T10:22:37.911Z,10.20
2017-12-24T10:23:39.799Z,10.17
2017-12-24T10:24:41.688Z,10.08
2017-12-24T10:25:43.497Z,10.15
2017-12-24T10:26:45.332Z,10.20
2017-12-24T10:27:47.186Z,10.18
2017-12-24T10:28:49.056Z,10.18
2017-12-24T10:29:50.939Z,10.14
2017-12-24T10:31:05.080Z,10.07
2017-12-24T10:32:06.948Z,10.04
2017-12-24T10:33:08.842Z,10.02
2017-12-24T10:34:10.702Z,10.07
2017-12-24T10:35:12.509Z,10.08
2017-12-24T10:36:14.337Z,9.99
2017-12-24T10:37:16.204Z,10.15
2017-12-24T10:38:18.095Z,10.04
2017-12-24T10:39:19.989Z,10.09
2017-12-24T10:40:34.133Z,10.15
2017-12-24T10:41:35.988Z,10.20
2017-12-24T10:42:37.855Z,10.11
2017-12-24T10:43:39.699Z,10.01
2017-12-24T10:44:41.529Z,9.93
2017-12-24T10:45:43.356Z,10.02
2017-12-24T10:46:45.219Z,9.94
2017-12-24T10:47:47.109Z,10.05
2017-12-24T10:48:48.995Z,10.17
2017-12-24T10:50:03.138Z,10.11
2017-12-24T10:51:05.032Z,10.22
2017-12-24T10:52:06.918Z,10.23
2017-12-24T10:53:08.811Z,10.26
2017-12-24T10:54:10.631Z,10.30
2017-12-24T10:55:12.440Z,10.36
2017-12-24T10:56:14.307Z,10.40
2017-12-24T10:57:16.255Z,10.36
2017-12-24T10:58:18.183Z,10.30
2017-12-24T10:59:32.344Z,10.34
2017-12-24T11:00:34.211Z,10.33
2017-12-24T11:01:36.292Z,10.34
2017-12-24T11:02:38.175Z,10.26
2017-12-24T11:03:40.019Z,10.32
2017-12-24T11:04:41.886Z,10.36
2017-12-24T11:05:43.779Z,10.41
2017-12-24T11:06:45.663Z,10.34
2017-12-24T11:07:47.537Z,10.40
2017-12-24T11:09:01.710Z,10.40
2017-12-24T11:10:03.588Z,10.34
2017-12-24T11:11:05.478Z,10.33
2017-12-24T11:12:07.375Z,10.45
2017-12-24T11:13:09.194Z,10.47
2017-12-24T11:14:11.027Z,10.51
2017-12-24T11:15:12.916Z,10.52
2017-12-24T11:16:14.805Z,10.68
2017-12-24T11:17:16.689Z,10.60
2017-12-24T11:18:30.906Z,10.55
2017-12-24T11:19:32.800Z,10.55
2017-12-24T11:20:34.690Z,10.48
2017-12-24T11:21:36.563Z,10.59
2017-12-24T11:22:38.390Z,10.55
2017-12-24T11:23:40.198Z,10.55
2017-12-24T11:24:42.119Z,10.53
2017-12-24T11:25:43.940Z,10.52
2017-12-24T11:26:45.806Z,10.67
2017-12-24T11:27:59.999Z,10.56
2017-12-24T11:29:01.883Z,10.52
2017-12-24T11:30:03.749Z,10.42
2017-12-24T11:31:05.621Z,10.41
2017-12-24T11:32:07.452Z,10.41
2017-12-24T11:33:09.286Z,10.32
2017-12-24T11:34:11.189Z,10.34
2017-12-24T11:35:13.062Z,10.34
2017-12-24T11:36:14.942Z,10.38
2017-12-24T11:37:29.112Z,10.38
2017-12-24T11:38:30.981Z,10.30
2017-12-24T11:39:32.846Z,10.33
2017-12-24T11:40:34.715Z,10.40
2017-12-24T11:41:36.566Z,10.44
2017-12-24T11:42:38.424Z,10.53
2017-12-24T11:43:40.395Z,10.51
2017-12-24T11:44:42.304Z,10.60
2017-12-24T11:45:44.226Z,10.56
2017-12-24T11:46:58.390Z,10.59
2017-12-24T11:48:00.288Z,10.53
2017-12-24T11:49:02.272Z,10.52
2017-12-24T11:50:04.142Z,10.47
2017-12-24T11:51:05.972Z,10.52
2017-12-24T11:52:07.802Z,10.64
2017-12-24T11:53:09.683Z,10.68
2017-12-24T11:54:11.565Z,10.73
2017-12-24T11:55:13.451Z,10.71
2017-12-24T11:56:27.596Z,10.76
2017-12-24T11:57:29.461Z,10.78
2017-12-24T11:58:31.356Z,10.88
2017-12-24T11:59:33.252Z,10.96
2017-12-24T12:00:35.090Z,11.06
2017-12-24T12:01:36.921Z,11.14
2017-12-24T12:02:38.794Z,11.22
2017-12-24T12:03:40.680Z,11.19
2017-12-24T12:04:42.551Z,11.21
2017-12-24T12:05:56.687Z,11.11
2017-12-24T12:06:58.553Z,11.18
2017-12-24T12:08:00.419Z,11.15
2017-12-24T12:09:02.291Z,11.21
2017-12-24T12:10:04.119Z,11.35
2017-12-24T12:11:05.928Z,11.25
2017-12-24T12:12:07.794Z,11.17
2017-12-24T12:13:09.711Z,11.14
2017-12-24T12:14:11.598Z,11.00
2017-12-24T12:15:25.765Z,11.21
2017-12-24T12:16:27.659Z,11.17
2017-12-24T12:17:29.588Z,11.28
2017-12-24T12:18:31.420Z,11.24
2017-12-24T12:19:33.318Z,11.29
2017-12-24T12:20:35.195Z,11.37
2017-12-24T12:21:37.094Z,11.39
2017-12-24T12:22:38.985Z,11.36
2017-12-24T12:23:40.872Z,11.35
2017-12-24T12:24:55.019Z,11.33
2017-12-24T12:25:56.909Z,11.21
2017-12-24T12:26:58.790Z,11.15
2017-12-24T12:28:00.650Z,10.94
2017-12-24T12:29:02.479Z,11.02
2017-12-24T12:30:04.311Z,11.03
2017-12-24T12:31:06.202Z,11.04
2017-12-24T12:32:08.071Z,11.10
2017-12-24T12:33:09.933Z,11.02
2017-12-24T12:34:24.080Z,11.11
2017-12-24T12:35:25.967Z,11.21
2017-12-24T12:36:27.848Z,11.32
2017-12-24T12:37:29.712Z,11.28
2017-12-24T12:38:31.534Z,11.19
2017-12-24T12:39:33.345Z,11.22
2017-12-24T12:40:35.206Z,11.32
2017-12-24T12:41:37.075Z,11.21
2017-12-24T12:42:38.943Z,11.35
2017-12-24T12:43:53.110Z,11.19
2017-12-24T12:44:54.980Z,11.25
2017-12-24T12:45:56.866Z,11.11
2017-12-24T12:46:58.730Z,11.18
2017-12-24T12:48:00.544Z,11.09
2017-12-24T12:49:02.349Z,11.11
2017-12-24T12:50:04.224Z,11.22
2017-12-24T12:51:06.112Z,11.17
2017-12-24T12:52:07.976Z,11.18
2017-12-24T12:53:22.109Z,11.21
2017-12-24T12:54:23.920Z,11.21
2017-12-24T12:55:25.740Z,11.22
2017-12-24T12:56:27.572Z,11.17
2017-12-24T12:57:29.457Z,11.24
2017-12-24T12:58:31.370Z,11.24
2017-12-24T12:59:33.161Z,11.18
2017-12-24T13:00:34.992Z,11.22
2017-12-24T13:01:36.823Z,11.17
2017-12-24T13:02:51.042Z,11.11
2017-12-24T13:03:52.910Z,11.10
2017-12-24T13:04:54.777Z,10.97
2017-12-24T13:05:56.643Z,11.00
2017-12-24T13:06:58.468Z,11.00
2017-12-24T13:08:00.277Z,10.99
2017-12-24T13:09:02.150Z,11.02
2017-12-24T13:10:04.016Z,10.94
2017-12-24T13:11:05.903Z,10.88
2017-12-24T13:12:20.065Z,11.03
2017-12-24T13:13:21.933Z,10.97
2017-12-24T13:14:23.822Z,10.94
2017-12-24T13:15:25.713Z,10.79
2017-12-24T13:16:27.536Z,10.78
2017-12-24T13:17:29.828Z,10.74
2017-12-24T13:18:31.630Z,10.78
2017-12-24T13:19:33.504Z,10.81
2017-12-24T13:20:35.373Z,10.76
2017-12-24T13:21:49.536Z,10.74
2017-12-24T13:22:51.399Z,10.79
2017-12-24T13:23:53.270Z,10.81
2017-12-24T13:24:55.163Z,10.85
2017-12-24T13:25:56.965Z,10.85
2017-12-24T13:26:58.776Z,10.79
2017-12-24T13:28:00.662Z,10.84
2017-12-24T13:29:02.528Z,10.82
2017-12-24T13:30:04.420Z,10.79
2017-12-24T13:31:18.580Z,10.78
2017-12-24T13:32:20.444Z,10.63
2017-12-24T13:33:22.311Z,10.63
2017-12-24T13:34:24.175Z,10.60
2017-12-24T13:35:25.987Z,10.56
2017-12-24T13:36:27.798Z,10.44
2017-12-24T13:37:29.682Z,10.53
2017-12-24T13:38:31.553Z,10.52
2017-12-24T13:39:33.443Z,10.56
2017-12-24T13:40:47.602Z,10.56
2017-12-24T13:41:49.465Z,10.59
2017-12-24T13:42:51.332Z,10.56
2017-12-24T13:43:53.199Z,10.63
2017-12-24T13:44:55.028Z,10.64
2017-12-24T13:45:56.858Z,10.67
2017-12-24T13:46:58.740Z,10.70
2017-12-24T13:48:00.607Z,10.70
2017-12-24T13:49:02.473Z,10.64
2017-12-24T13:50:16.609Z,10.60
2017-12-24T13:51:18.476Z,10.53
2017-12-24T13:52:20.340Z,10.61
2017-12-24T13:53:22.204Z,10.61
2017-12-24T13:54:24.012Z,10.42